カイエンヌ の空港の天気 - METARとTAF

カイエンヌ/ロシャンボー空港 ( SOCA / CAY ) - フランス領ギアナ カイエンヌ
飛行場実況気象(Metar)
観測時間05/25 00:00 GFT (05/25 03:00 UTC)
風向・風速南 1m/s
視程10km以上
天気現象
全天の4割程度の雲 雲底高度 550m
全天の8割程度の雲 雲底高度 820m
全天の8割程度の雲 雲底高度 1070m
気温25℃
湿度100%
気圧1014hPa
METARSOCA 250300Z AUTO 17002KT 9999 SCT018 BKN027 BKN035 25/25 Q1014 TEMPO 3000 SHRA SCT012TCU
過去の天気等 Google飛行場航空写真 Wunderground天気予報

過去48時間のMETAR

飛行場予報(TAF)
発表時間: 5/24 19:00 GFT (5/24 22:00 UTC)
予報対象時間: 24日21時 GFT ~ 25日21時 GFT
風向・風速不定 2m/s
視程10km以上
全天の4割程度の雲 雲底高度 760m
全天の8割程度の雲 雲底高度 1,220m
24日21時 GFT ~ 25日9時 GFT に一時的に
視程3,000m
天気現象しゅう雨
全天の4割程度の塔状積雲 雲底高度 370m
25日9時 GFT から
風向・風速東 5m/s
視程10km以上
少しの雲 雲底高度 460m
全天の4割程度の雲 雲底高度 610m
全天の8割程度の雲 雲底高度 1,220m
25日9時 GFT ~ 25日21時 GFT に 確率 40% で一時的に
視程3,000m
天気現象しゅう雨
全天の4割程度の塔状積雲 雲底高度 370m
25日9時 GFT から 確率 40% で
天気現象雷雨
少しの積乱雲 雲底高度 300m
25日19時 GFT ~ 25日20時 GFT に徐々に
風向・風速不定 2m/s
TAF SOCA 242200Z 2500/2524 VRB04KT 9999 SCT025 BKN040
TEMPO 2500/2512 3000 SHRA SCT012TCU
FM251200 09010KT 9999 FEW015 SCT020 BKN040
PROB40 TEMPO 2512/2524 3000 SHRA SCT012TCU
PROB40 2512/2521 TSRA FEW010CB
BECMG 2522/2523 VRB04KT